Time;durP1;ratioP1;P1;durP2;ratioP2;P2;SDS_P1;SDS_P2;PMS_P1;PMS_P2;Temp;Humidity;BMP_temperature;BMP_pressure;BME280_temperature;BME280_humidity;BME280_pressure;Samples;Min_cycle;Max_cycle;Signal;HPM_P1;HPM_P2
2021/12/29 00:01:07;;;;;;;11.98;5.22;;;9.90;99.90;;;;;;5075259;28;20032;-79
2021/12/29 00:03:33;;;;;;;15.27;5.85;;;9.80;99.90;;;;;;5075509;28;20111;-80
2021/12/29 00:05:59;;;;;;;10.70;5.30;;;9.80;99.90;;;;;;5057410;28;20380;-80
2021/12/29 00:08:25;;;;;;;14.75;6.00;;;9.80;99.90;;;;;;5075032;28;20081;-80
2021/12/29 00:10:55;;;;;;;9.70;4.95;;;9.80;99.90;;;;;;5075052;28;20029;-80
2021/12/29 00:13:25;;;;;;;14.75;5.28;;;9.80;99.90;;;;;;5075099;28;20064;-80
2021/12/29 00:15:58;;;;;;;14.97;4.87;;;9.90;99.90;;;;;;5075117;28;20054;-80
2021/12/29 00:18:41;;;;;;;13.00;4.65;;;9.90;99.90;;;;;;5074949;28;20040;-79
2021/12/29 00:21:08;;;;;;;15.38;3.72;;;9.90;99.90;;;;;;5074990;28;20037;-79
2021/12/29 00:23:33;;;;;;;7.13;3.67;;;9.90;99.90;;;;;;5074708;28;20064;-80
2021/12/29 00:25:59;;;;;;;10.13;4.32;;;9.90;99.90;;;;;;5074991;28;20056;-81
2021/12/29 00:28:25;;;;;;;11.93;3.80;;;9.90;99.90;;;;;;5074847;28;20027;-80
2021/12/29 00:30:51;;;;;;;10.07;3.90;;;9.90;99.90;;;;;;5074854;28;20420;-80
2021/12/29 00:33:35;;;;;;;16.67;4.25;;;9.90;99.90;;;;;;5074976;28;20516;-78
2021/12/29 00:36:19;;;;;;;11.05;4.72;;;9.80;99.90;;;;;;5074742;28;20416;-80
2021/12/29 00:39:03;;;;;;;20.73;4.65;;;9.90;99.90;;;;;;5073372;28;20090;-80
2021/12/29 00:41:55;;;;;;;14.00;4.53;;;9.90;99.90;;;;;;5074792;28;20707;-80
2021/12/29 00:44:39;;;;;;;12.65;4.68;;;9.90;99.90;;;;;;5074925;28;20128;-80
2021/12/29 00:47:13;;;;;;;12.68;4.10;;;9.90;99.90;;;;;;5073357;28;20066;-79
2021/12/29 00:49:40;;;;;;;8.88;4.60;;;9.90;99.90;;;;;;5074583;28;20469;-78
2021/12/29 00:52:07;;;;;;;13.02;4.75;;;9.90;99.90;;;;;;5073353;28;20421;-80
2021/12/29 00:54:35;;;;;;;14.02;4.53;;;9.90;99.90;;;;;;5072972;28;20028;-79
2021/12/29 00:57:01;;;;;;;13.13;4.97;;;9.90;99.90;;;;;;5074339;28;20036;-80
2021/12/29 00:59:26;;;;;;;14.85;5.28;;;9.90;99.90;;;;;;5074214;28;20473;-80
2021/12/29 01:01:53;;;;;;;15.52;5.57;;;9.90;99.90;;;;;;5074209;28;20032;-80
2021/12/29 01:04:19;;;;;;;13.02;5.32;;;9.90;99.90;;;;;;5074268;28;20025;-80
2021/12/29 01:06:46;;;;;;;13.90;6.45;;;9.90;99.90;;;;;;5073017;28;20153;-79
2021/12/29 01:09:11;;;;;;;13.35;5.47;;;9.90;99.90;;;;;;5073523;28;20119;-80
2021/12/29 01:11:38;;;;;;;12.38;5.65;;;9.90;99.90;;;;;;5074034;28;20096;-81
2021/12/29 01:14:05;;;;;;;15.25;5.50;;;9.90;99.90;;;;;;5074202;28;20039;-80
2021/12/29 01:19:06;;;;;;;21.38;6.07;;;9.90;99.90;;;;;;5073654;28;20035;-80
2021/12/29 01:21:33;;;;;;;14.50;4.68;;;9.90;99.90;;;;;;5073506;28;20105;-79
2021/12/29 01:24:00;;;;;;;16.73;5.13;;;9.90;99.90;;;;;;5062586;28;20029;-80
2021/12/29 01:26:26;;;;;;;11.10;4.18;;;9.90;99.90;;;;;;5064664;28;20032;-81
2021/12/29 01:28:52;;;;;;;10.68;4.30;;;9.80;99.90;;;;;;5073358;28;20020;-81
2021/12/29 01:31:18;;;;;;;13.57;4.20;;;9.80;99.90;;;;;;5073592;28;20035;-79
2021/12/29 01:33:44;;;;;;;16.08;3.97;;;9.80;99.90;;;;;;5073713;28;20016;-80
2021/12/29 01:36:09;;;;;;;12.88;4.25;;;9.80;99.90;;;;;;5073349;28;20036;-81
2021/12/29 01:38:35;;;;;;;17.75;4.43;;;9.80;99.90;;;;;;5073669;28;20150;-79
2021/12/29 01:41:01;;;;;;;11.60;3.15;;;9.80;99.90;;;;;;5073614;28;20054;-81
2021/12/29 01:43:26;;;;;;;13.77;3.55;;;9.80;99.90;;;;;;5073636;28;20388;-80
2021/12/29 01:45:52;;;;;;;6.80;2.80;;;9.80;99.90;;;;;;5072067;28;20562;-80
2021/12/29 01:48:19;;;;;;;13.15;4.30;;;9.80;99.90;;;;;;5073329;28;20029;-81
2021/12/29 01:50:49;;;;;;;6.38;3.00;;;9.80;99.90;;;;;;5072887;28;20037;-80
2021/12/29 01:53:22;;;;;;;9.18;3.70;;;9.80;99.90;;;;;;5072192;28;20040;-81
2021/12/29 01:55:49;;;;;;;16.00;2.97;;;9.80;99.90;;;;;;5073127;28;20162;-81
2021/12/29 01:58:15;;;;;;;10.63;3.47;;;9.80;99.90;;;;;;5073073;28;20071;-80
2021/12/29 02:00:41;;;;;;;10.23;4.13;;;9.80;99.90;;;;;;5073255;28;20024;-81
2021/12/29 02:03:08;;;;;;;12.25;3.63;;;9.90;99.90;;;;;;5073218;28;20035;-81
2021/12/29 02:05:39;;;;;;;11.93;3.83;;;9.90;99.90;;;;;;5072933;28;20052;-81
2021/12/29 02:08:05;;;;;;;10.80;3.10;;;9.80;99.90;;;;;;5073150;28;20032;-81
2021/12/29 02:10:36;;;;;;;11.80;3.80;;;9.90;99.90;;;;;;5072912;28;20059;-80
2021/12/29 02:13:03;;;;;;;9.73;3.50;;;9.80;99.90;;;;;;5073057;28;20028;-81
2021/12/29 02:15:28;;;;;;;10.63;3.53;;;9.80;99.90;;;;;;5072975;28;20029;-81
2021/12/29 02:17:54;;;;;;;11.40;3.53;;;9.80;99.90;;;;;;5072921;28;20421;-81
2021/12/29 02:20:21;;;;;;;7.40;3.30;;;9.80;99.90;;;;;;5072523;28;20111;-81
2021/12/29 02:22:53;;;;;;;14.40;3.40;;;9.90;99.90;;;;;;5072460;28;20036;-82
2021/12/29 02:25:32;;;;;;;5.53;3.28;;;9.90;99.90;;;;;;5072708;28;20061;-80
2021/12/29 02:28:02;;;;;;;12.63;4.00;;;9.80;99.90;;;;;;5072846;28;20024;-81
2021/12/29 02:30:28;;;;;;;8.45;3.42;;;9.90;99.90;;;;;;5072934;28;20028;-82
2021/12/29 02:32:55;;;;;;;9.48;3.83;;;9.80;99.90;;;;;;5072946;28;20047;-82
2021/12/29 02:35:22;;;;;;;8.10;3.08;;;9.80;99.90;;;;;;5070968;28;20025;-80
2021/12/29 02:37:48;;;;;;;12.90;3.60;;;9.80;99.90;;;;;;5071571;28;20071;-80
2021/12/29 02:40:14;;;;;;;8.30;2.95;;;9.90;99.90;;;;;;5072864;28;20033;-78
2021/12/29 02:42:42;;;;;;;15.18;3.85;;;9.90;99.90;;;;;;5072913;28;20025;-81
2021/12/29 02:45:11;;;;;;;13.50;3.78;;;9.90;99.90;;;;;;5072517;28;20082;-81
2021/12/29 02:47:37;;;;;;;11.30;3.20;;;9.80;99.90;;;;;;5072727;28;20032;-82
2021/12/29 02:50:04;;;;;;;9.73;3.25;;;9.80;99.90;;;;;;5072705;28;20024;-80
2021/12/29 02:52:30;;;;;;;8.50;3.08;;;9.80;99.90;;;;;;5071565;28;20052;-81
2021/12/29 02:54:55;;;;;;;11.10;3.42;;;9.80;99.90;;;;;;5072491;28;20067;-81
2021/12/29 02:57:21;;;;;;;7.90;3.05;;;9.80;99.90;;;;;;5071393;28;20035;-81
2021/12/29 02:59:47;;;;;;;9.73;2.97;;;9.80;99.90;;;;;;5072764;28;20497;-80
2021/12/29 03:02:13;;;;;;;7.57;3.20;;;9.80;99.90;;;;;;5071147;28;20438;-81
2021/12/29 03:04:39;;;;;;;9.50;2.75;;;9.90;99.90;;;;;;5072294;28;20032;-82
2021/12/29 03:07:04;;;;;;;9.57;3.30;;;9.80;99.90;;;;;;5072485;28;20043;-81
2021/12/29 03:09:31;;;;;;;8.43;3.25;;;9.80;99.90;;;;;;5072430;28;20473;-82
2021/12/29 03:11:57;;;;;;;6.90;2.83;;;9.80;99.90;;;;;;5072369;28;20028;-82
2021/12/29 03:14:24;;;;;;;12.15;3.20;;;9.80;99.90;;;;;;5072612;28;20541;-82
2021/12/29 03:16:51;;;;;;;12.88;3.22;;;9.80;99.90;;;;;;5072352;28;20065;-82
2021/12/29 03:19:17;;;;;;;6.82;2.80;;;9.80;99.90;;;;;;5072107;28;20476;-81
2021/12/29 03:21:44;;;;;;;5.80;2.88;;;9.80;99.90;;;;;;5072429;28;20161;-82
2021/12/29 03:24:11;;;;;;;8.15;2.63;;;9.80;99.90;;;;;;5072385;28;20021;-82
2021/12/29 03:26:37;;;;;;;13.80;3.70;;;9.80;99.90;;;;;;5072408;28;20036;-82
2021/12/29 03:29:05;;;;;;;8.07;2.95;;;9.80;99.90;;;;;;5072311;28;20100;-78
2021/12/29 03:31:32;;;;;;;7.90;2.88;;;10.00;99.90;;;;;;5072170;28;20477;-82
2021/12/29 03:33:58;;;;;;;9.13;3.55;;;9.90;99.90;;;;;;5073208;28;20028;-81
2021/12/29 03:36:24;;;;;;;9.38;3.25;;;9.90;99.90;;;;;;5075874;28;20033;-82
2021/12/29 03:38:50;;;;;;;9.25;4.28;;;9.80;99.90;;;;;;5076063;28;20037;-82
2021/12/29 03:41:17;;;;;;;13.85;4.38;;;9.70;99.90;;;;;;5075788;28;20107;-82
2021/12/29 03:43:44;;;;;;;14.05;4.70;;;9.70;99.90;;;;;;5075804;28;20627;-82
2021/12/29 03:46:11;;;;;;;7.43;3.85;;;9.80;99.90;;;;;;5075662;28;20039;-81
2021/12/29 03:48:38;;;;;;;8.05;3.97;;;9.90;99.90;;;;;;5075582;28;20032;-82
2021/12/29 03:51:05;;;;;;;14.65;4.78;;;9.80;99.90;;;;;;5075529;28;20581;-82
2021/12/29 03:53:32;;;;;;;12.40;4.97;;;9.70;99.90;;;;;;5074578;28;20389;-81
2021/12/29 03:55:58;;;;;;;13.52;4.82;;;9.70;99.90;;;;;;5075613;28;20040;-82
2021/12/29 03:58:25;;;;;;;12.25;4.57;;;9.60;99.90;;;;;;5075532;28;20089;-81
2021/12/29 04:00:55;;;;;;;10.13;5.00;;;9.60;99.90;;;;;;5075630;28;20026;-82
2021/12/29 04:03:21;;;;;;;13.68;4.97;;;9.60;99.90;;;;;;5075165;28;20025;-81
2021/12/29 04:05:48;;;;;;;12.15;5.82;;;9.60;99.90;;;;;;5075457;28;20060;-81
2021/12/29 04:08:14;;;;;;;9.43;5.15;;;9.80;99.90;;;;;;5075094;28;20052;-82
2021/12/29 04:10:40;;;;;;;9.98;5.25;;;9.80;99.90;;;;;;5075504;28;20048;-81
2021/12/29 04:13:06;;;;;;;10.02;5.18;;;9.60;99.90;;;;;;5075112;28;20066;-81
2021/12/29 04:15:33;;;;;;;13.38;5.47;;;9.60;99.90;;;;;;5074833;28;20154;-76
2021/12/29 04:18:03;;;;;;;15.02;6.03;;;9.60;99.90;;;;;;5075047;28;20041;-81
2021/12/29 04:23:18;;;;;;;12.43;5.40;;;9.70;99.90;;;;;;5074908;28;20397;-81
2021/12/29 04:25:49;;;;;;;10.25;5.22;;;9.80;99.90;;;;;;5074895;28;20070;-82
2021/12/29 04:28:20;;;;;;;16.45;7.13;;;9.70;99.90;;;;;;5074745;28;20040;-82
2021/12/29 04:30:56;;;;;;;14.75;6.45;;;9.80;99.90;;;;;;5074787;28;20506;-82
2021/12/29 04:33:23;;;;;;;10.93;5.40;;;9.70;99.90;;;;;;5073665;28;20032;-82
2021/12/29 04:35:50;;;;;;;11.70;5.50;;;9.70;99.90;;;;;;5074649;28;20039;-81
2021/12/29 04:38:16;;;;;;;12.52;5.80;;;9.70;99.90;;;;;;5074770;28;20036;-82
2021/12/29 04:40:42;;;;;;;18.00;7.05;;;9.70;99.90;;;;;;5074681;28;20031;-81
2021/12/29 04:43:08;;;;;;;12.52;6.18;;;9.70;99.90;;;;;;5074474;28;20496;-83
2021/12/29 04:45:34;;;;;;;12.23;5.35;;;9.70;99.90;;;;;;5074066;28;20405;-82
2021/12/29 04:48:01;;;;;;;12.05;5.47;;;9.60;99.90;;;;;;5074239;28;20108;-81
2021/12/29 04:50:36;;;;;;;12.68;5.90;;;9.60;99.90;;;;;;5074646;28;20032;-81
2021/12/29 04:53:04;;;;;;;10.73;5.55;;;9.80;99.90;;;;;;5072833;28;20033;-80
2021/12/29 04:55:30;;;;;;;10.48;5.18;;;9.70;99.90;;;;;;5074464;28;20056;-80
2021/12/29 04:57:58;;;;;;;8.25;5.15;;;9.70;99.90;;;;;;5074095;28;20074;-75
2021/12/29 05:00:26;;;;;;;11.02;4.80;;;9.70;99.90;;;;;;5074228;28;20431;-81
2021/12/29 05:02:53;;;;;;;11.23;5.50;;;9.70;99.90;;;;;;5073175;28;20127;-81
2021/12/29 05:05:23;;;;;;;12.88;5.68;;;9.70;99.90;;;;;;5074057;28;20027;-80
2021/12/29 05:10:34;;;;;;;9.18;6.30;;;9.70;99.90;;;;;;5073988;28;20033;-81
2021/12/29 05:13:00;;;;;;;10.30;5.03;;;9.70;99.90;;;;;;5074010;28;20074;-81
2021/12/29 05:15:26;;;;;;;9.45;5.40;;;9.80;99.90;;;;;;5073826;28;20055;-80
2021/12/29 05:17:54;;;;;;;11.98;5.82;;;9.80;99.90;;;;;;5073973;28;20033;-80
2021/12/29 05:20:20;;;;;;;11.15;6.38;;;9.80;99.90;;;;;;5073767;28;20064;-80
2021/12/29 05:22:46;;;;;;;8.65;5.43;;;9.80;99.90;;;;;;5073932;28;20060;-80
2021/12/29 05:25:11;;;;;;;11.18;6.13;;;9.80;99.90;;;;;;5073740;28;20409;-81
2021/12/29 05:27:37;;;;;;;8.43;5.90;;;9.60;99.90;;;;;;5073897;28;20074;-81
2021/12/29 05:30:04;;;;;;;10.38;6.28;;;9.60;99.90;;;;;;5073408;28;20036;-80
2021/12/29 05:32:32;;;;;;;7.10;6.03;;;9.60;99.90;;;;;;5055806;28;20460;-81
2021/12/29 05:34:58;;;;;;;10.43;6.57;;;9.70;99.90;;;;;;5073447;28;20107;-80
2021/12/29 05:37:23;;;;;;;9.63;6.35;;;9.70;99.90;;;;;;5073615;28;20437;-79
2021/12/29 05:39:49;;;;;;;10.43;6.07;;;9.70;99.90;;;;;;5073611;28;20103;-83
2021/12/29 05:42:15;;;;;;;9.48;6.20;;;9.60;99.90;;;;;;5073411;28;20043;-80
2021/12/29 05:44:41;;;;;;;16.90;6.53;;;9.60;99.90;;;;;;5073144;28;20477;-80
2021/12/29 05:47:06;;;;;;;9.82;6.30;;;9.70;99.90;;;;;;5072085;28;20046;-80
2021/12/29 05:49:32;;;;;;;10.18;6.43;;;9.80;99.90;;;;;;5073378;28;20033;-80
2021/12/29 05:51:58;;;;;;;10.55;6.65;;;9.60;99.90;;;;;;5073381;28;20068;-80
2021/12/29 05:54:24;;;;;;;9.15;6.45;;;9.70;99.90;;;;;;5073100;28;20070;-80
2021/12/29 05:56:50;;;;;;;11.23;6.60;;;9.60;99.90;;;;;;5072554;28;20157;-80
2021/12/29 05:59:15;;;;;;;8.43;6.50;;;9.60;99.90;;;;;;5073122;28;20536;-80
2021/12/29 06:01:43;;;;;;;7.53;6.25;;;9.60;99.90;;;;;;5073349;28;20078;-83
2021/12/29 06:04:09;;;;;;;7.40;5.97;;;9.60;99.90;;;;;;5073133;28;20511;-81
2021/12/29 06:06:34;;;;;;;8.52;5.80;;;9.60;99.90;;;;;;5073532;28;20546;-78
2021/12/29 06:09:00;;;;;;;7.00;6.15;;;9.60;99.90;;;;;;5073058;28;20056;-80
2021/12/29 06:11:26;;;;;;;10.32;6.40;;;9.70;99.90;;;;;;5072137;28;20033;-79
2021/12/29 06:13:51;;;;;;;9.25;6.88;;;9.70;99.90;;;;;;5073171;28;20060;-81
2021/12/29 06:16:18;;;;;;;7.78;6.97;;;9.80;99.90;;;;;;5071928;28;20078;-79
2021/12/29 06:18:43;;;;;;;12.57;6.90;;;9.80;99.90;;;;;;5073260;28;20037;-81
2021/12/29 06:21:16;;;;;;;9.02;6.82;;;9.80;99.90;;;;;;5075420;28;20074;-79
2021/12/29 06:23:45;;;;;;;11.20;6.50;;;9.80;99.90;;;;;;5071803;28;20032;-79
2021/12/29 06:26:11;;;;;;;10.10;7.53;;;9.80;99.90;;;;;;5072506;28;20119;-79
2021/12/29 06:28:38;;;;;;;9.00;6.80;;;9.80;99.90;;;;;;5073059;28;20040;-79
2021/12/29 06:31:04;;;;;;;12.88;6.93;;;9.80;99.90;;;;;;5072818;28;20392;-79
2021/12/29 06:33:29;;;;;;;10.13;6.97;;;9.70;99.90;;;;;;5072969;28;20036;-78
2021/12/29 06:35:55;;;;;;;10.75;7.40;;;9.70;99.90;;;;;;5072850;28;20127;-79
2021/12/29 06:38:21;;;;;;;10.23;6.95;;;9.70;99.90;;;;;;5072751;28;20025;-79
2021/12/29 06:40:47;;;;;;;10.15;6.55;;;9.60;99.90;;;;;;5072499;28;20461;-81
2021/12/29 06:43:12;;;;;;;11.57;7.50;;;9.70;99.90;;;;;;5072792;28;20032;-82
2021/12/29 06:45:38;;;;;;;10.68;6.80;;;9.90;99.90;;;;;;5072709;28;20483;-79
2021/12/29 06:48:04;;;;;;;15.52;7.38;;;9.90;99.90;;;;;;5072728;28;20089;-79
2021/12/29 06:50:30;;;;;;;9.23;7.63;;;9.90;99.90;;;;;;5072465;28;20032;-79
2021/12/29 06:52:56;;;;;;;10.57;6.65;;;10.00;99.90;;;;;;5072855;28;20110;-79
2021/12/29 06:55:22;;;;;;;10.88;7.10;;;9.90;99.90;;;;;;5072377;28;20032;-79
2021/12/29 06:57:48;;;;;;;8.57;6.82;;;9.70;99.90;;;;;;5072889;28;20090;-81
2021/12/29 07:00:14;;;;;;;11.60;6.40;;;9.80;99.90;;;;;;5072486;28;20063;-81
2021/12/29 07:02:40;;;;;;;16.25;7.50;;;9.70;99.90;;;;;;5071969;28;20047;-80
2021/12/29 07:05:06;;;;;;;11.32;6.68;;;9.60;99.90;;;;;;5072751;28;20054;-79
2021/12/29 07:07:32;;;;;;;9.75;6.75;;;9.60;99.90;;;;;;5073244;28;20028;-81
2021/12/29 07:09:58;;;;;;;15.95;6.90;;;9.60;99.90;;;;;;5076042;28;20033;-81
2021/12/29 07:12:24;;;;;;;10.95;7.25;;;9.50;99.90;;;;;;5075160;28;20055;-81
2021/12/29 07:14:49;;;;;;;12.05;6.13;;;9.40;99.90;;;;;;5075197;28;20033;-82
2021/12/29 07:17:15;;;;;;;16.38;6.13;;;9.20;99.90;;;;;;5074723;28;20098;-79
2021/12/29 07:19:41;;;;;;;11.18;6.10;;;9.20;99.90;;;;;;5076116;28;20119;-80
2021/12/29 07:22:07;;;;;;;9.10;6.13;;;9.40;99.90;;;;;;5074800;28;20033;-80
2021/12/29 07:24:34;;;;;;;8.05;5.90;;;9.40;99.90;;;;;;5075974;28;20017;-80
2021/12/29 07:27:01;;;;;;;14.18;6.22;;;9.40;99.90;;;;;;5074715;28;20036;-80
2021/12/29 07:29:27;;;;;;;11.02;6.32;;;9.50;99.90;;;;;;5076431;28;20027;-80
2021/12/29 07:31:53;;;;;;;11.63;5.75;;;9.60;99.90;;;;;;5074747;28;20047;-80
2021/12/29 07:34:21;;;;;;;16.77;6.75;;;9.60;99.90;;;;;;5075856;28;20029;-78
2021/12/29 07:36:47;;;;;;;11.77;5.43;;;9.50;99.90;;;;;;5075999;28;20036;-78
2021/12/29 07:39:14;;;;;;;12.25;6.30;;;9.60;99.90;;;;;;5075822;28;20025;-80
2021/12/29 07:41:41;;;;;;;14.85;6.78;;;9.50;99.90;;;;;;5075710;28;20085;-80
2021/12/29 07:44:08;;;;;;;13.05;5.13;;;9.50;99.90;;;;;;5074514;28;20059;-80
2021/12/29 07:46:34;;;;;;;11.05;5.50;;;9.40;99.90;;;;;;5075742;28;20036;-80
2021/12/29 07:49:04;;;;;;;11.00;5.57;;;9.30;99.90;;;;;;5075627;28;20032;-79
2021/12/29 07:51:31;;;;;;;14.90;5.47;;;9.30;99.90;;;;;;5074081;28;20031;-80
2021/12/29 07:53:57;;;;;;;15.57;5.93;;;9.50;99.90;;;;;;5075333;28;20361;-80
2021/12/29 07:56:23;;;;;;;9.93;5.30;;;9.40;99.90;;;;;;5075415;28;20041;-79
2021/12/29 07:58:49;;;;;;;18.23;5.93;;;9.30;99.90;;;;;;5075488;28;20032;-79
2021/12/29 08:01:15;;;;;;;20.77;6.78;;;9.20;99.90;;;;;;5075569;28;20432;-79
2021/12/29 08:03:41;;;;;;;13.65;6.47;;;9.30;99.90;;;;;;5075799;28;20033;-80
2021/12/29 08:06:07;;;;;;;10.88;6.10;;;9.30;99.90;;;;;;5075328;28;20044;-80
2021/12/29 08:08:33;;;;;;;11.95;6.22;;;9.20;99.90;;;;;;5074969;28;20493;-79
2021/12/29 08:10:58;;;;;;;18.45;6.18;;;9.20;99.90;;;;;;5075188;28;20097;-80
2021/12/29 08:13:24;;;;;;;16.45;5.60;;;9.10;99.90;;;;;;5075237;28;20132;-80
2021/12/29 08:15:50;;;;;;;14.88;5.35;;;9.20;99.90;;;;;;5075179;28;20032;-79
2021/12/29 08:18:16;;;;;;;15.23;4.82;;;9.20;99.90;;;;;;5074970;28;20040;-79
2021/12/29 08:20:42;;;;;;;14.57;4.70;;;9.10;99.90;;;;;;5074340;28;20661;-80
2021/12/29 08:23:09;;;;;;;16.65;4.65;;;9.10;99.90;;;;;;5074869;28;20532;-80
2021/12/29 08:25:35;;;;;;;13.00;4.72;;;9.20;99.90;;;;;;5075013;28;20032;-80
2021/12/29 08:28:02;;;;;;;9.95;4.55;;;9.20;99.90;;;;;;5074877;28;20070;-79
2021/12/29 08:30:28;;;;;;;12.20;4.20;;;9.20;99.90;;;;;;5074818;28;20028;-79
2021/12/29 08:32:54;;;;;;;10.27;3.95;;;9.20;99.90;;;;;;5073831;28;20392;-81
2021/12/29 08:35:20;;;;;;;11.30;4.65;;;9.10;99.90;;;;;;5074863;28;20033;-80
2021/12/29 08:37:47;;;;;;;16.55;4.47;;;9.20;99.90;;;;;;5073223;28;20039;-80
2021/12/29 08:40:14;;;;;;;13.52;4.25;;;9.30;99.90;;;;;;5074913;28;20029;-80
2021/12/29 08:42:40;;;;;;;15.23;4.53;;;9.30;99.90;;;;;;5074611;28;20055;-80
2021/12/29 08:45:09;;;;;;;14.40;4.60;;;9.20;99.90;;;;;;5074865;28;20021;-81
2021/12/29 08:47:35;;;;;;;16.80;4.18;;;9.20;99.90;;;;;;5074333;28;20422;-80
2021/12/29 08:50:03;;;;;;;14.02;4.20;;;9.20;99.90;;;;;;5074472;28;20104;-80
2021/12/29 08:52:29;;;;;;;16.63;4.38;;;9.10;99.90;;;;;;5073016;28;20032;-80
2021/12/29 08:54:54;;;;;;;14.32;4.50;;;9.20;99.90;;;;;;5074615;28;20050;-81
2021/12/29 08:57:20;;;;;;;13.88;4.32;;;9.20;99.90;;;;;;5074313;28;20037;-80
2021/12/29 08:59:46;;;;;;;14.15;4.35;;;9.10;99.90;;;;;;5072862;28;20025;-79
2021/12/29 09:02:12;;;;;;;9.43;4.65;;;9.20;99.90;;;;;;5074346;28;20025;-80
2021/12/29 09:04:38;;;;;;;16.55;4.82;;;9.20;99.90;;;;;;5074189;28;20462;-80
2021/12/29 09:07:04;;;;;;;17.50;4.82;;;9.10;99.90;;;;;;5074187;28;20029;-80
2021/12/29 09:09:30;;;;;;;23.17;5.40;;;9.10;99.90;;;;;;5073830;28;20024;-80
2021/12/29 09:11:55;;;;;;;16.75;4.70;;;9.20;99.90;;;;;;5074112;28;20045;-81
2021/12/29 09:14:21;;;;;;;14.48;4.63;;;9.10;99.90;;;;;;5073984;28;20032;-79
2021/12/29 09:16:47;;;;;;;23.35;5.10;;;9.10;99.90;;;;;;5074185;28;20033;-80
2021/12/29 09:19:14;;;;;;;27.38;6.65;;;9.20;99.90;;;;;;5073858;28;20419;-79
2021/12/29 09:21:43;;;;;;;21.58;5.35;;;9.20;99.90;;;;;;5073525;28;20042;-80
2021/12/29 09:24:10;;;;;;;16.90;4.30;;;9.20;99.90;;;;;;5073919;28;20366;-80
2021/12/29 09:26:36;;;;;;;20.73;5.18;;;9.20;99.90;;;;;;5073732;28;20020;-80
2021/12/29 09:29:01;;;;;;;25.52;5.40;;;9.20;99.90;;;;;;5073710;28;20032;-80
2021/12/29 09:31:27;;;;;;;21.55;5.90;;;9.30;99.90;;;;;;5073536;28;20470;-80
2021/12/29 09:33:54;;;;;;;21.17;4.10;;;9.40;99.90;;;;;;5073801;28;20055;-80
2021/12/29 09:36:19;;;;;;;30.35;5.25;;;9.40;99.90;;;;;;5072172;28;20040;-80
2021/12/29 09:38:45;;;;;;;14.30;4.47;;;9.50;99.90;;;;;;5073792;28;20389;-82
2021/12/29 09:41:14;;;;;;;21.30;4.78;;;9.50;99.90;;;;;;5073552;28;20504;-79
2021/12/29 09:43:42;;;;;;;21.75;5.03;;;9.40;99.90;;;;;;5073250;28;20381;-82
2021/12/29 09:46:08;;;;;;;19.05;4.68;;;9.40;99.90;;;;;;5073446;28;20586;-80
2021/12/29 09:48:36;;;;;;;17.75;4.68;;;9.40;99.90;;;;;;5073329;28;20465;-79
2021/12/29 09:51:03;;;;;;;25.73;4.75;;;9.40;99.90;;;;;;5073278;28;20025;-79
2021/12/29 09:53:29;;;;;;;23.88;5.47;;;9.50;99.90;;;;;;5073366;28;20032;-79
2021/12/29 09:55:54;;;;;;;15.32;3.60;;;9.50;99.90;;;;;;5072970;28;20425;-80
2021/12/29 09:58:20;;;;;;;17.40;4.57;;;9.40;99.90;;;;;;5073380;28;20432;-80
2021/12/29 10:00:51;;;;;;;20.08;5.25;;;9.40;99.90;;;;;;5073195;28;20029;-79
2021/12/29 10:03:19;;;;;;;15.23;5.32;;;9.60;99.90;;;;;;5073412;28;20036;-80
2021/12/29 10:05:47;;;;;;;17.65;4.18;;;9.50;99.90;;;;;;5072758;28;20024;-80
2021/12/29 10:08:20;;;;;;;12.68;4.28;;;9.60;99.90;;;;;;5072963;28;20036;-79
2021/12/29 10:10:52;;;;;;;14.48;3.90;;;9.50;99.90;;;;;;5072795;28;20032;-82
2021/12/29 10:13:18;;;;;;;19.48;4.13;;;9.40;99.90;;;;;;5073075;28;20044;-77
2021/12/29 10:16:00;;;;;;;18.73;4.35;;;9.40;99.90;;;;;;5072902;28;20047;-80
2021/12/29 10:18:28;;;;;;;18.83;4.80;;;9.50;99.90;;;;;;5072536;28;20503;-78
2021/12/29 10:20:56;;;;;;;12.02;4.00;;;9.60;99.90;;;;;;5072921;28;20540;-82
2021/12/29 10:23:25;;;;;;;11.45;3.92;;;9.50;99.90;;;;;;5073055;28;20025;-79
2021/12/29 10:25:52;;;;;;;17.17;4.10;;;9.50;99.90;;;;;;5072849;28;20035;-80
2021/12/29 10:28:27;;;;;;;13.02;3.75;;;9.60;99.90;;;;;;5073103;28;20107;-80
2021/12/29 10:31:11;;;;;;;23.77;4.10;;;9.60;99.90;;;;;;5072721;28;20039;-79
2021/12/29 10:33:52;;;;;;;16.85;4.32;;;9.60;99.90;;;;;;5072635;28;20559;-79
2021/12/29 10:36:41;;;;;;;20.15;3.92;;;9.60;99.90;;;;;;5072570;28;20047;-81
2021/12/29 10:39:27;;;;;;;12.27;4.18;;;9.80;99.90;;;;;;5068374;28;20081;-82
2021/12/29 10:41:58;;;;;;;17.05;4.53;;;9.70;99.90;;;;;;5072885;28;20024;-80
2021/12/29 10:44:27;;;;;;;19.23;4.47;;;9.70;99.90;;;;;;5079255;28;20032;-80
2021/12/29 10:46:56;;;;;;;24.75;4.60;;;9.80;99.90;;;;;;5079372;28;20686;-79
2021/12/29 10:49:24;;;;;;;30.13;6.20;;;9.80;99.90;;;;;;5079300;28;20112;-80
2021/12/29 10:51:49;;;;;;;15.68;4.82;;;9.70;99.90;;;;;;5078040;28;20445;-79
2021/12/29 10:54:19;;;;;;;30.05;7.38;;;9.80;99.90;;;;;;5078055;28;20024;-80
2021/12/29 10:57:07;;;;;;;23.80;6.03;;;9.80;99.90;;;;;;5077919;28;20086;-80
2021/12/29 10:59:37;;;;;;;22.90;6.07;;;9.80;99.90;;;;;;5077878;28;20028;-79
2021/12/29 11:02:05;;;;;;;23.42;6.82;;;9.90;99.90;;;;;;5078869;28;20051;-81
2021/12/29 11:04:31;;;;;;;22.85;6.50;;;10.00;99.90;;;;;;5079065;28;20028;-79
2021/12/29 11:06:57;;;;;;;26.90;6.65;;;9.90;99.90;;;;;;5079161;28;20032;-80
2021/12/29 11:09:27;;;;;;;16.17;6.55;;;10.00;99.90;;;;;;5078926;28;20024;-80
2021/12/29 11:11:53;;;;;;;27.92;6.97;;;10.00;99.90;;;;;;5079041;28;20056;-80
2021/12/29 11:14:25;;;;;;;18.67;7.00;;;10.00;99.90;;;;;;5079153;28;20016;-80
2021/12/29 11:17:07;;;;;;;18.08;5.43;;;10.00;99.90;;;;;;5078587;28;20051;-80
2021/12/29 11:19:35;;;;;;;18.40;7.60;;;10.00;99.90;;;;;;5079012;28;20389;-80
2021/12/29 11:22:22;;;;;;;20.25;7.47;;;10.00;99.90;;;;;;5078982;28;20025;-79
2021/12/29 11:24:57;;;;;;;27.85;7.43;;;10.00;99.90;;;;;;5079654;28;20373;-80
2021/12/29 11:27:24;;;;;;;28.27;8.98;;;10.00;99.90;;;;;;5077707;28;20384;-80
2021/12/29 11:29:57;;;;;;;31.45;9.63;;;10.00;99.90;;;;;;5078937;28;20068;-80
2021/12/29 11:32:29;;;;;;;31.73;7.82;;;10.00;99.90;;;;;;5078585;28;20392;-79
2021/12/29 11:35:09;;;;;;;29.90;8.65;;;10.10;99.90;;;;;;5079026;28;20063;-79
2021/12/29 11:37:37;;;;;;;23.00;8.75;;;10.20;99.90;;;;;;5079004;28;20036;-79
2021/12/29 11:40:04;;;;;;;33.20;8.15;;;10.20;99.90;;;;;;5078899;28;20035;-81
2021/12/29 11:42:29;;;;;;;25.00;8.25;;;10.20;99.90;;;;;;5078786;28;20070;-80
2021/12/29 11:44:55;;;;;;;28.27;8.02;;;10.10;99.90;;;;;;5078912;28;20048;-78
2021/12/29 11:47:21;;;;;;;29.52;8.07;;;10.10;99.90;;;;;;5078376;28;20034;-81
2021/12/29 11:49:47;;;;;;;26.50;7.78;;;10.10;99.90;;;;;;5078664;28;20400;-80
2021/12/29 11:52:24;;;;;;;25.42;7.75;;;10.10;99.90;;;;;;5078733;28;20358;-81
2021/12/29 11:55:08;;;;;;;25.00;6.93;;;10.10;99.90;;;;;;5075204;28;20468;-80
2021/12/29 11:57:35;;;;;;;29.42;7.70;;;10.10;99.90;;;;;;5075338;28;20040;-79
2021/12/29 12:00:16;;;;;;;38.80;8.02;;;10.10;99.90;;;;;;5075221;28;20020;-80
2021/12/29 12:02:42;;;;;;;25.88;6.82;;;10.10;99.90;;;;;;5075411;28;20068;-80
2021/12/29 12:05:16;;;;;;;31.10;7.78;;;10.20;99.90;;;;;;5075497;28;20063;-80
2021/12/29 12:07:43;;;;;;;20.83;5.95;;;10.20;99.90;;;;;;5075190;28;20075;-80
2021/12/29 12:10:14;;;;;;;27.27;6.40;;;10.20;99.90;;;;;;5075072;28;20020;-80
2021/12/29 12:12:47;;;;;;;29.43;8.20;;;10.30;99.90;;;;;;5075299;28;20103;-80
2021/12/29 12:15:14;;;;;;;23.88;6.90;;;10.30;99.90;;;;;;5074900;28;20036;-80
2021/12/29 12:17:41;;;;;;;20.77;6.38;;;10.30;99.90;;;;;;5073648;28;20033;-80
2021/12/29 12:20:12;;;;;;;32.85;8.57;;;10.30;99.90;;;;;;5074781;28;20077;-80
2021/12/29 12:22:50;;;;;;;27.27;6.03;;;10.20;99.90;;;;;;5075187;28;20040;-80
2021/12/29 12:25:27;;;;;;;23.05;5.80;;;10.30;99.90;;;;;;5074978;28;20044;-80
2021/12/29 12:27:58;;;;;;;30.00;6.88;;;10.20;99.90;;;;;;5074842;28;20062;-81
2021/12/29 12:30:26;;;;;;;23.00;5.87;;;10.30;99.90;;;;;;5075043;28;20086;-80
2021/12/29 12:32:58;;;;;;;24.48;6.38;;;10.20;99.90;;;;;;5075770;28;20059;-82
2021/12/29 12:35:27;;;;;;;;;;;10.30;99.90;;;;;;5075109;28;20036;-79
2021/12/29 12:37:52;;;;;;;26.33;6.65;;;10.20;99.90;;;;;;5073377;28;19923;-79
2021/12/29 12:40:23;;;;;;;23.50;6.63;;;10.20;99.90;;;;;;5073632;28;20020;-80
2021/12/29 12:43:12;;;;;;;23.70;6.13;;;10.20;99.90;;;;;;5074360;28;20036;-80
2021/12/29 12:45:44;;;;;;;25.20;5.70;;;10.10;99.90;;;;;;5074711;28;20395;-79
2021/12/29 12:48:11;;;;;;;;;;;10.20;99.90;;;;;;5073773;28;20103;-79
2021/12/29 12:50:40;;;;;;;16.08;5.25;;;10.20;99.90;;;;;;5074553;28;19913;-86
2021/12/29 12:53:07;;;;;;;20.90;5.20;;;10.10;99.90;;;;;;5073388;28;20024;-84
2021/12/29 12:55:44;;;;;;;20.33;5.55;;;10.10;99.90;;;;;;5074268;28;20040;-85
2021/12/29 12:58:12;;;;;;;15.02;5.65;;;10.10;99.90;;;;;;5073963;28;20044;-83
2021/12/29 13:00:44;;;;;;;18.20;4.10;;;10.10;99.90;;;;;;5074483;28;20032;-83